Time;durP1;ratioP1;P1;durP2;ratioP2;P2;SDS_P1;SDS_P2;PMS_P1;PMS_P2;Temp;Humidity;BMP_temperature;BMP_pressure;BME280_temperature;BME280_humidity;BME280_pressure;Samples;Min_cycle;Max_cycle;Signal;HPM_P1;HPM_P2
2021/11/18 00:00:21;;;;;;;7.60;3.35;;;;;;;;;;4935361;29;20036;-72
2021/11/18 00:03:27;;;;;;;4.93;2.85;;;;;;;;;;4935697;29;20040;-72
2021/11/18 00:06:31;;;;;;;3.28;2.63;;;;;;;;;;4935465;29;20051;-72
2021/11/18 00:09:37;;;;;;;4.40;2.70;;;;;;;;;;4935202;29;20035;-72
2021/11/18 00:12:43;;;;;;;5.63;2.90;;;;;;;;;;4935314;29;20036;-72
2021/11/18 00:15:48;;;;;;;6.80;2.58;;;;;;;;;;4934826;29;20044;-72
2021/11/18 00:18:53;;;;;;;3.80;2.70;;;;;;;;;;4934440;29;20044;-71
2021/11/18 00:21:58;;;;;;;7.45;2.67;;;;;;;;;;4934744;29;20373;-71
2021/11/18 00:25:04;;;;;;;5.38;2.65;;;;;;;;;;4923222;29;20040;-72
2021/11/18 00:28:10;;;;;;;4.00;3.05;;;;;;;;;;4934889;29;20048;-72
2021/11/18 00:31:16;;;;;;;4.18;3.38;;;;;;;;;;4934302;29;20036;-71
2021/11/18 00:34:21;;;;;;;3.90;3.08;;;;;;;;;;4934748;29;20048;-70
2021/11/18 00:37:25;;;;;;;4.72;3.15;;;;;;;;;;4934911;29;20480;-71
2021/11/18 00:40:34;;;;;;;4.40;3.05;;;;;;;;;;4934833;29;20047;-71
2021/11/18 00:43:39;;;;;;;6.03;3.00;;;;;;;;;;4934507;29;20048;-72
2021/11/18 00:46:43;;;;;;;8.98;3.60;;;;;;;;;;4934792;29;20051;-71
2021/11/18 00:49:47;;;;;;;6.68;3.35;;;;;;;;;;4933962;29;20047;-71
2021/11/18 00:52:52;;;;;;;5.47;3.33;;;;;;;;;;4934403;29;20032;-72
2021/11/18 00:55:58;;;;;;;8.10;4.00;;;;;;;;;;4933900;29;20044;-72
2021/11/18 00:59:03;;;;;;;5.50;3.25;;;;;;;;;;4933427;29;20036;-71
2021/11/18 01:02:08;;;;;;;6.72;3.40;;;;;;;;;;4933846;29;20032;-71
2021/11/18 01:05:13;;;;;;;6.78;3.22;;;;;;;;;;4934345;29;20043;-72
2021/11/18 01:08:22;;;;;;;6.22;3.70;;;;;;;;;;4933329;29;20487;-70
2021/11/18 01:11:28;;;;;;;5.80;3.70;;;;;;;;;;4922771;29;20043;-70
2021/11/18 01:14:38;;;;;;;6.75;4.25;;;;;;;;;;4934166;29;20040;-72
2021/11/18 01:17:43;;;;;;;4.88;4.10;;;;;;;;;;4933717;29;20039;-71
2021/11/18 01:20:49;;;;;;;7.15;4.45;;;;;;;;;;4934202;29;20039;-71
2021/11/18 01:23:54;;;;;;;6.25;4.05;;;;;;;;;;4934224;29;20048;-71
2021/11/18 01:27:05;;;;;;;10.07;4.65;;;;;;;;;;4934643;29;20047;-71
2021/11/18 01:30:15;;;;;;;4.80;4.15;;;;;;;;;;4926399;29;20037;-73
2021/11/18 01:33:24;;;;;;;7.00;4.20;;;;;;;;;;4937169;29;20048;-72
2021/11/18 01:36:29;;;;;;;6.68;3.85;;;;;;;;;;4937518;29;20361;-71
2021/11/18 01:39:45;;;;;;;5.10;3.63;;;;;;;;;;4937238;29;20047;-70
2021/11/18 01:42:52;;;;;;;6.15;3.97;;;;;;;;;;4926459;29;20032;-71
2021/11/18 01:45:58;;;;;;;9.40;4.93;;;;;;;;;;4938142;29;20036;-72
2021/11/18 01:49:06;;;;;;;5.13;3.47;;;;;;;;;;4936920;29;20051;-72
2021/11/18 01:52:14;;;;;;;5.05;3.92;;;;;;;;;;4926301;29;20039;-72
2021/11/18 01:55:20;;;;;;;5.25;3.53;;;;;;;;;;4937148;29;20500;-72
2021/11/18 01:58:25;;;;;;;10.85;4.28;;;;;;;;;;4936937;29;20036;-72
2021/11/18 02:01:51;;;;;;;4.82;3.65;;;;;;;;;;4937695;29;20579;-72
2021/11/18 02:05:29;;;;;;;4.07;3.20;;;;;;;;;;4937916;29;20377;-72
2021/11/18 02:08:37;;;;;;;5.60;3.40;;;;;;;;;;4936602;29;20059;-72
2021/11/18 02:11:49;;;;;;;9.32;2.97;;;;;;;;;;4936873;29;20035;-72
2021/11/18 02:14:54;;;;;;;4.70;2.67;;;;;;;;;;4936836;29;20048;-72
2021/11/18 02:18:00;;;;;;;4.35;2.38;;;;;;;;;;4936866;29;20593;-71
2021/11/18 02:21:10;;;;;;;4.40;2.35;;;;;;;;;;4936786;29;20040;-71
2021/11/18 02:24:25;;;;;;;4.45;2.40;;;;;;;;;;4925895;29;20039;-71
2021/11/18 02:27:37;;;;;;;4.25;2.50;;;;;;;;;;4936556;29;20052;-71
2021/11/18 02:30:43;;;;;;;3.58;2.35;;;;;;;;;;4925574;29;20039;-70
2021/11/18 02:33:48;;;;;;;4.88;2.45;;;;;;;;;;4925256;29;20488;-70
2021/11/18 02:36:56;;;;;;;3.55;2.50;;;;;;;;;;4925712;29;20047;-70
2021/11/18 02:40:00;;;;;;;4.03;2.35;;;;;;;;;;4936150;29;20035;-70
2021/11/18 02:43:06;;;;;;;7.28;3.22;;;;;;;;;;4936337;29;20044;-72
2021/11/18 02:46:10;;;;;;;4.95;2.53;;;;;;;;;;4936536;29;20048;-71
2021/11/18 02:49:14;;;;;;;5.60;3.20;;;;;;;;;;4937191;29;20044;-72
2021/11/18 02:52:28;;;;;;;4.10;2.60;;;;;;;;;;4936110;29;20039;-71
2021/11/18 02:55:35;;;;;;;4.53;2.80;;;;;;;;;;4937048;29;20044;-71
2021/11/18 02:58:40;;;;;;;4.85;2.80;;;;;;;;;;4935784;29;20043;-71
2021/11/18 03:01:46;;;;;;;7.07;3.05;;;;;;;;;;4936164;29;20047;-71
2021/11/18 03:04:50;;;;;;;3.63;2.70;;;;;;;;;;4936620;29;20480;-70
2021/11/18 03:07:57;;;;;;;4.40;2.78;;;;;;;;;;4935945;29;20055;-71
2021/11/18 03:11:03;;;;;;;3.80;2.90;;;;;;;;;;4935467;29;20035;-70
2021/11/18 03:14:08;;;;;;;6.22;3.33;;;;;;;;;;4935867;29;20040;-70
2021/11/18 03:17:21;;;;;;;4.68;3.05;;;;;;;;;;4935534;29;20032;-72
2021/11/18 03:20:44;;;;;;;5.53;3.45;;;;;;;;;;4935893;29;20048;-72
2021/11/18 03:23:49;;;;;;;5.13;3.28;;;;;;;;;;4935725;29;20035;-72
2021/11/18 03:26:53;;;;;;;4.90;2.92;;;;;;;;;;4935344;29;20043;-70
2021/11/18 03:30:01;;;;;;;5.45;3.13;;;;;;;;;;4935406;29;20400;-72
2021/11/18 03:33:10;;;;;;;7.93;2.92;;;;;;;;;;4935149;29;20047;-72
2021/11/18 03:36:16;;;;;;;4.57;3.22;;;;;;;;;;4924644;29;20472;-72
2021/11/18 03:39:24;;;;;;;6.55;3.08;;;;;;;;;;4935268;29;20032;-72
2021/11/18 03:42:30;;;;;;;4.38;3.00;;;;;;;;;;4935110;29;20044;-73
2021/11/18 03:45:35;;;;;;;5.43;2.90;;;;;;;;;;4935275;29;20044;-70
2021/11/18 03:48:39;;;;;;;3.85;2.63;;;;;;;;;;4934867;29;20051;-70
2021/11/18 03:51:46;;;;;;;4.13;2.95;;;;;;;;;;4935035;29;20035;-70
2021/11/18 03:54:51;;;;;;;6.00;2.88;;;;;;;;;;4935083;29;20047;-71
2021/11/18 03:57:57;;;;;;;4.07;2.95;;;;;;;;;;4934749;29;20044;-70
2021/11/18 04:01:02;;;;;;;5.97;3.22;;;;;;;;;;4934817;29;20039;-71
2021/11/18 04:04:09;;;;;;;3.85;2.85;;;;;;;;;;4934955;29;20039;-71
2021/11/18 04:07:17;;;;;;;5.05;3.08;;;;;;;;;;4934670;29;20398;-72
2021/11/18 04:10:24;;;;;;;5.13;2.50;;;;;;;;;;4934796;29;20396;-72
2021/11/18 04:13:30;;;;;;;4.65;2.75;;;;;;;;;;4934611;29;20044;-72
2021/11/18 04:16:36;;;;;;;8.23;2.70;;;;;;;;;;4934578;29;20393;-72
2021/11/18 04:19:43;;;;;;;6.32;2.78;;;;;;;;;;4934561;29;20043;-72
2021/11/18 04:22:49;;;;;;;4.20;2.70;;;;;;;;;;4934515;29;20039;-72
2021/11/18 04:25:53;;;;;;;6.75;2.80;;;;;;;;;;4935298;29;20369;-72
2021/11/18 04:28:58;;;;;;;4.15;2.63;;;;;;;;;;4934265;29;20048;-70
2021/11/18 04:32:06;;;;;;;5.25;2.80;;;;;;;;;;4934278;29;20035;-71
2021/11/18 04:35:11;;;;;;;4.47;2.58;;;;;;;;;;4923637;29;20043;-70
2021/11/18 04:38:17;;;;;;;6.72;2.92;;;;;;;;;;4934093;29;20055;-72
2021/11/18 04:41:24;;;;;;;4.65;3.13;;;;;;;;;;4934280;29;20051;-72
2021/11/18 04:44:31;;;;;;;3.92;2.63;;;;;;;;;;4933989;29;20044;-70
2021/11/18 04:47:36;;;;;;;4.85;3.05;;;;;;;;;;4933942;29;20055;-73
2021/11/18 04:50:41;;;;;;;5.45;3.10;;;;;;;;;;4933927;29;20040;-72
2021/11/18 04:53:45;;;;;;;6.00;3.15;;;;;;;;;;4933959;29;20044;-73
2021/11/18 04:56:52;;;;;;;5.32;3.25;;;;;;;;;;4934000;29;20180;-72
2021/11/18 04:59:56;;;;;;;5.18;3.50;;;;;;;;;;4933955;29;20039;-72
2021/11/18 05:03:01;;;;;;;10.88;3.70;;;;;;;;;;4933992;29;20040;-72
2021/11/18 05:06:06;;;;;;;6.35;3.80;;;;;;;;;;4922967;29;20074;-73
2021/11/18 05:09:11;;;;;;;7.28;4.13;;;;;;;;;;4933507;29;20055;-72
2021/11/18 05:12:17;;;;;;;10.00;3.80;;;;;;;;;;4933895;29;20043;-70
2021/11/18 05:15:23;;;;;;;7.57;4.05;;;;;;;;;;4922829;29;20047;-72
2021/11/18 05:18:27;;;;;;;6.90;4.03;;;;;;;;;;4923011;29;20040;-72
2021/11/18 05:21:32;;;;;;;8.82;4.50;;;;;;;;;;4933820;29;20047;-72
2021/11/18 05:24:37;;;;;;;5.72;4.22;;;;;;;;;;4933460;29;20035;-73
2021/11/18 05:27:43;;;;;;;7.30;4.47;;;;;;;;;;4933615;29;20040;-72
2021/11/18 05:30:49;;;;;;;8.02;4.60;;;;;;;;;;4934042;29;20047;-71
2021/11/18 05:33:54;;;;;;;5.90;4.45;;;;;;;;;;4922121;29;20507;-71
2021/11/18 05:37:07;;;;;;;9.13;4.50;;;;;;;;;;4912765;29;20036;-71
2021/11/18 05:40:14;;;;;;;8.57;4.50;;;;;;;;;;4933390;29;20036;-71
2021/11/18 05:43:19;;;;;;;6.47;4.45;;;;;;;;;;4933318;29;20385;-71
2021/11/18 05:46:23;;;;;;;7.93;4.28;;;;;;;;;;4933500;29;20039;-70
2021/11/18 05:49:29;;;;;;;7.90;4.22;;;;;;;;;;4922405;29;20039;-71
2021/11/18 05:52:35;;;;;;;6.80;4.30;;;;;;;;;;4933039;29;20032;-72
2021/11/18 05:55:40;;;;;;;5.78;4.22;;;;;;;;;;4933260;29;20467;-71
2021/11/18 05:58:47;;;;;;;5.93;3.78;;;;;;;;;;4922274;29;20368;-71
2021/11/18 06:01:52;;;;;;;7.38;4.40;;;;;;;;;;4933357;29;20048;-71
2021/11/18 06:04:56;;;;;;;5.78;4.45;;;;;;;;;;4922467;29;20036;-73
2021/11/18 06:08:01;;;;;;;13.75;4.78;;;;;;;;;;4933834;29;20047;-72
2021/11/18 06:11:05;;;;;;;9.27;4.88;;;;;;;;;;4932940;29;20040;-75
2021/11/18 06:14:11;;;;;;;9.43;5.95;;;;;;;;;;4936008;29;20044;-72
2021/11/18 06:17:15;;;;;;;10.70;5.80;;;;;;;;;;4936420;29;20036;-73
2021/11/18 06:20:25;;;;;;;10.07;5.15;;;;;;;;;;4936263;29;20043;-74
2021/11/18 06:23:30;;;;;;;8.00;4.88;;;;;;;;;;4925633;29;20043;-74
2021/11/18 06:26:34;;;;;;;11.93;5.80;;;;;;;;;;4936425;29;20384;-74
2021/11/18 06:29:39;;;;;;;28.13;6.60;;;;;;;;;;4937360;29;20047;-71
2021/11/18 06:32:44;;;;;;;11.18;6.00;;;;;;;;;;4924968;29;20057;-73
2021/11/18 06:35:48;;;;;;;16.80;8.40;;;;;;;;;;4935922;29;20039;-73
2021/11/18 06:38:54;;;;;;;13.75;7.45;;;;;;;;;;4935982;29;20055;-74
2021/11/18 06:41:58;;;;;;;16.75;7.72;;;;;;;;;;4936349;29;20670;-72
2021/11/18 06:45:03;;;;;;;35.60;10.00;;;;;;;;;;4935768;29;20046;-71
2021/11/18 06:48:08;;;;;;;16.13;7.93;;;;;;;;;;4924784;29;20064;-72
2021/11/18 06:51:15;;;;;;;17.20;7.13;;;;;;;;;;4935959;29;20040;-74
2021/11/18 06:54:21;;;;;;;15.65;7.00;;;;;;;;;;4936139;29;20053;-75
2021/11/18 06:57:25;;;;;;;28.05;8.07;;;;;;;;;;4925032;29;20040;-74
2021/11/18 07:00:30;;;;;;;22.10;7.50;;;;;;;;;;4936369;29;20059;-73
2021/11/18 07:03:39;;;;;;;15.63;7.80;;;;;;;;;;4935791;29;20055;-74
2021/11/18 07:06:43;;;;;;;18.10;7.60;;;;;;;;;;4935852;29;20046;-73
2021/11/18 07:09:56;;;;;;;15.15;8.15;;;;;;;;;;4925361;29;20407;-73
2021/11/18 07:13:05;;;;;;;16.13;8.48;;;;;;;;;;4935938;29;20036;-73
2021/11/18 07:16:12;;;;;;;26.92;9.95;;;;;;;;;;4924695;29;20035;-69
2021/11/18 07:19:18;;;;;;;24.38;9.95;;;;;;;;;;4926347;29;20048;-74
2021/11/18 07:22:22;;;;;;;18.83;7.78;;;;;;;;;;4938790;29;20048;-78
2021/11/18 07:25:45;;;;;;;35.25;10.75;;;;;;;;;;4941724;29;20028;-84
2021/11/18 07:28:51;;;;;;;28.35;8.73;;;;;;;;;;4940413;29;20624;-79
2021/11/18 07:31:56;;;;;;;15.02;8.00;;;;;;;;;;4939707;29;20042;-76
2021/11/18 07:35:01;;;;;;;19.45;8.50;;;;;;;;;;4937303;29;20048;-82
2021/11/18 07:38:09;;;;;;;20.63;13.32;;;;;;;;;;4935651;29;20051;-75
2021/11/18 07:41:17;;;;;;;19.23;8.52;;;;;;;;;;4935782;29;20399;-71
2021/11/18 07:44:32;;;;;;;16.90;7.28;;;;;;;;;;4937572;29;20044;-79
2021/11/18 07:47:55;;;;;;;16.42;7.82;;;;;;;;;;4940600;29;20397;-76
2021/11/18 07:51:01;;;;;;;19.55;7.30;;;;;;;;;;4937535;29;20040;-78
2021/11/18 07:54:07;;;;;;;13.32;6.65;;;;;;;;;;4936478;29;20039;-77
2021/11/18 07:57:12;;;;;;;9.65;7.13;;;;;;;;;;4936024;29;20047;-77
2021/11/18 08:00:18;;;;;;;10.07;5.85;;;;;;;;;;4942888;29;20032;-81
2021/11/18 08:03:35;;;;;;;7.90;5.50;;;;;;;;;;4927793;29;20417;-72
2021/11/18 08:07:03;;;;;;;17.88;7.60;;;;;;;;;;4938195;29;20135;-78
2021/11/18 08:10:08;;;;;;;12.63;7.10;;;;;;;;;;4937236;29;20052;-77
2021/11/18 08:13:21;;;;;;;12.52;7.10;;;;;;;;;;4936825;29;20044;-74
2021/11/18 08:16:25;;;;;;;16.77;7.53;;;;;;;;;;4938509;29;20048;-79
2021/11/18 08:19:35;;;;;;;14.07;7.53;;;;;;;;;;4937968;29;20044;-79
2021/11/18 08:22:50;;;;;;;9.35;5.43;;;;;;;;;;4938885;29;20396;-79
2021/11/18 08:25:55;;;;;;;8.65;6.88;;;;;;;;;;4939236;29;20066;-82
2021/11/18 08:29:00;;;;;;;8.95;5.68;;;;;;;;;;4932070;29;20385;-74
2021/11/18 08:32:06;;;;;;;14.73;7.10;;;;;;;;;;4937672;29;20652;-79
2021/11/18 08:35:14;;;;;;;15.65;6.90;;;;;;;;;;4940081;29;20062;-76
2021/11/18 08:38:19;;;;;;;10.93;5.57;;;;;;;;;;4923412;29;20043;-78
2021/11/18 08:41:25;;;;;;;18.10;6.75;;;;;;;;;;4934281;29;20054;-75
2021/11/18 08:44:33;;;;;;;13.73;6.05;;;;;;;;;;4932611;29;20388;-75
2021/11/18 08:47:37;;;;;;;10.02;5.50;;;;;;;;;;4935927;29;20040;-77
2021/11/18 08:50:44;;;;;;;8.82;5.18;;;;;;;;;;4935278;29;20044;-82
2021/11/18 08:53:54;;;;;;;15.73;5.93;;;;;;;;;;4940630;29;20036;-84
2021/11/18 08:56:59;;;;;;;7.97;4.35;;;;;;;;;;4938473;29;20040;-82
2021/11/18 09:00:09;;;;;;;8.82;4.30;;;;;;;;;;4936006;29;20047;-76
2021/11/18 09:03:19;;;;;;;8.77;4.68;;;;;;;;;;4923652;29;20475;-75
2021/11/18 09:06:23;;;;;;;11.30;4.32;;;;;;;;;;4934715;29;20039;-79
2021/11/18 09:09:31;;;;;;;14.13;5.28;;;;;;;;;;4934057;29;20056;-75
2021/11/18 09:12:35;;;;;;;11.75;5.22;;;;;;;;;;4934885;29;20504;-78
2021/11/18 09:15:40;;;;;;;10.32;5.43;;;;;;;;;;4935761;29;20035;-74
2021/11/18 09:18:45;;;;;;;8.68;4.75;;;;;;;;;;4939072;29;20054;-80
2021/11/18 09:21:50;;;;;;;9.20;4.82;;;;;;;;;;4936498;29;20346;-74
2021/11/18 09:24:57;;;;;;;10.80;4.38;;;;;;;;;;4941041;29;20036;-83
2021/11/18 09:28:02;;;;;;;12.18;5.05;;;;;;;;;;4940060;29;20058;-79
2021/11/18 09:31:10;;;;;;;8.75;4.15;;;;;;;;;;4939354;29;20043;-75
2021/11/18 09:34:14;;;;;;;8.48;4.07;;;;;;;;;;4933339;29;20059;-74
2021/11/18 09:37:19;;;;;;;7.68;4.07;;;;;;;;;;4933237;29;20043;-80
2021/11/18 09:40:31;;;;;;;8.68;3.65;;;;;;;;;;4933126;29;20039;-71
2021/11/18 09:44:00;;;;;;;7.32;3.58;;;;;;;;;;4933227;29;20040;-71
2021/11/18 09:47:11;;;;;;;6.82;3.55;;;;;;;;;;4934003;29;20373;-77
2021/11/18 09:50:32;;;;;;;4.07;2.90;;;;;;;;;;4942288;29;20040;-78
2021/11/18 09:54:13;;;;;;;8.00;3.67;;;;;;;;;;4940509;29;20043;-77
2021/11/18 09:57:17;;;;;;;6.80;3.22;;;;;;;;;;4943016;29;20036;-81
2021/11/18 10:00:26;;;;;;;4.53;2.95;;;;;;;;;;4941301;29;20035;-80
2021/11/18 10:03:55;;;;;;;8.82;4.03;;;;;;;;;;4940710;29;20032;-79
2021/11/18 10:07:06;;;;;;;10.05;3.95;;;;;;;;;;4942790;29;20040;-78
2021/11/18 10:10:11;;;;;;;;;;;;;;;;;;4943216;29;20047;-83
2021/11/18 10:13:21;;;;;;;9.23;3.75;;;;;;;;;;4943342;29;19922;-83
2021/11/18 10:16:32;;;;;;;4.80;3.42;;;;;;;;;;4944391;29;20491;-81
2021/11/18 10:19:41;;;;;;;7.13;3.40;;;;;;;;;;4942892;29;20035;-78
2021/11/18 10:22:47;;;;;;;8.30;3.53;;;;;;;;;;4942558;29;20048;-79
2021/11/18 10:25:58;;;;;;;5.28;2.63;;;;;;;;;;4939811;29;20035;-81
2021/11/18 10:29:02;;;;;;;4.45;2.50;;;;;;;;;;4941487;29;20052;-76
2021/11/18 10:32:06;;;;;;;3.83;2.22;;;;;;;;;;4941996;29;20044;-82
2021/11/18 10:35:11;;;;;;;7.28;2.88;;;;;;;;;;4942297;29;20048;-77
2021/11/18 10:38:15;;;;;;;4.80;2.75;;;;;;;;;;4940581;29;20044;-82
2021/11/18 10:41:25;;;;;;;12.63;2.80;;;;;;;;;;4943415;29;20039;-81
2021/11/18 10:44:31;;;;;;;5.72;2.90;;;;;;;;;;4941261;29;20043;-80
2021/11/18 10:47:45;;;;;;;5.32;2.80;;;;;;;;;;4942762;29;20499;-81
2021/11/18 10:50:49;;;;;;;5.00;2.22;;;;;;;;;;4938477;29;20048;-75
2021/11/18 10:53:58;;;;;;;5.57;3.10;;;;;;;;;;4938307;29;20035;-74
2021/11/18 10:57:04;;;;;;;4.35;2.33;;;;;;;;;;4936846;29;20345;-75
2021/11/18 11:00:16;;;;;;;5.88;2.42;;;;;;;;;;4937186;29;20036;-78
2021/11/18 11:03:35;;;;;;;6.28;2.47;;;;;;;;;;4937496;29;20047;-75
2021/11/18 11:06:42;;;;;;;4.63;2.00;;;;;;;;;;4937523;29;20040;-79
2021/11/18 11:09:48;;;;;;;4.28;2.33;;;;;;;;;;4934913;29;20052;-76
2021/11/18 11:12:57;;;;;;;5.25;2.42;;;;;;;;;;4935894;29;20032;-76
2021/11/18 11:16:24;;;;;;;5.22;2.83;;;;;;;;;;4937684;29;20043;-79
2021/11/18 11:19:31;;;;;;;5.68;2.25;;;;;;;;;;4937298;29;20047;-78
2021/11/18 11:22:40;;;;;;;4.68;2.03;;;;;;;;;;4937734;29;20039;-76
2021/11/18 11:25:56;;;;;;;3.65;1.92;;;;;;;;;;4936041;29;20039;-73
2021/11/18 11:29:24;;;;;;;5.22;1.90;;;;;;;;;;4935308;29;20051;-71
2021/11/18 11:32:37;;;;;;;5.88;3.20;;;;;;;;;;4934240;29;20043;-76
2021/11/18 11:35:49;;;;;;;3.67;1.85;;;;;;;;;;4935254;29;20048;-75
2021/11/18 11:38:53;;;;;;;;;;;;;;;;;;4936086;29;20044;-79
2021/11/18 11:41:57;;;;;;;5.18;2.13;;;;;;;;;;4934581;29;19917;-77
2021/11/18 11:45:08;;;;;;;9.93;3.20;;;;;;;;;;4926523;29;20040;-77
2021/11/18 11:48:34;;;;;;;3.42;2.53;;;;;;;;;;4935430;29;20080;-76
2021/11/18 11:51:44;;;;;;;6.07;2.85;;;;;;;;;;4935922;29;20215;-73
2021/11/18 11:54:58;;;;;;;5.97;2.83;;;;;;;;;;4936574;29;20345;-77
2021/11/18 11:58:26;;;;;;;3.85;2.63;;;;;;;;;;4937777;29;20043;-75
2021/11/18 12:01:39;;;;;;;4.20;2.30;;;;;;;;;;4935811;29;20040;-77
2021/11/18 12:04:59;;;;;;;9.65;2.38;;;;;;;;;;4935228;29;20032;-73
2021/11/18 12:08:06;;;;;;;4.78;2.65;;;;;;;;;;4934808;29;20052;-72
2021/11/18 12:11:16;;;;;;;6.93;3.50;;;;;;;;;;4934580;29;20093;-72
2021/11/18 12:14:23;;;;;;;6.50;3.38;;;;;;;;;;4935414;29;20031;-73
2021/11/18 12:17:54;;;;;;;5.70;3.47;;;;;;;;;;4935621;29;20039;-73
2021/11/18 12:20:59;;;;;;;6.07;3.00;;;;;;;;;;4935595;29;20040;-72
2021/11/18 12:24:09;;;;;;;7.18;3.05;;;;;;;;;;4935468;29;20039;-72
2021/11/18 12:27:19;;;;;;;6.25;3.90;;;;;;;;;;4934563;29;20480;-73
2021/11/18 12:30:24;;;;;;;5.28;3.30;;;;;;;;;;4934786;29;20051;-73
2021/11/18 12:33:28;;;;;;;4.60;3.17;;;;;;;;;;4934514;29;20052;-73
2021/11/18 12:36:32;;;;;;;5.53;3.08;;;;;;;;;;4934673;29;20035;-70
2021/11/18 12:40:00;;;;;;;6.07;3.03;;;;;;;;;;4934878;29;20044;-71
2021/11/18 12:43:22;;;;;;;6.57;3.17;;;;;;;;;;4927415;29;20039;-72
2021/11/18 12:46:26;;;;;;;5.43;3.20;;;;;;;;;;4934544;29;20043;-72
2021/11/18 12:49:51;;;;;;;6.13;3.53;;;;;;;;;;4934208;29;20048;-72
2021/11/18 12:53:19;;;;;;;8.18;3.65;;;;;;;;;;4934654;29;20040;-73
2021/11/18 12:56:48;;;;;;;5.75;3.42;;;;;;;;;;4934575;29;20035;-73
2021/11/18 13:00:08;;;;;;;9.10;3.70;;;;;;;;;;4933570;29;20035;-73
2021/11/18 13:03:13;;;;;;;7.35;4.22;;;;;;;;;;4934669;29;20047;-73
2021/11/18 13:06:30;;;;;;;6.45;4.55;;;;;;;;;;4934270;29;20036;-73
2021/11/18 13:09:53;;;;;;;7.55;4.53;;;;;;;;;;4934185;29;20055;-73
2021/11/18 13:13:03;;;;;;;10.35;4.72;;;;;;;;;;4934832;29;20500;-75
2021/11/18 13:16:27;;;;;;;9.73;4.63;;;;;;;;;;4935521;29;20043;-81
2021/11/18 13:19:38;;;;;;;6.28;4.50;;;;;;;;;;4937316;29;20044;-77
2021/11/18 13:22:44;;;;;;;5.25;3.83;;;;;;;;;;4937406;29;20035;-82
2021/11/18 13:25:49;;;;;;;6.03;4.30;;;;;;;;;;4938483;29;20036;-78
2021/11/18 13:29:02;;;;;;;7.32;4.00;;;;;;;;;;4939141;29;20055;-83
2021/11/18 13:32:09;;;;;;;8.00;4.53;;;;;;;;;;4940101;29;20043;-78
2021/11/18 13:35:33;;;;;;;7.25;4.13;;;;;;;;;;4939361;29;20040;-77
2021/11/18 13:38:57;;;;;;;7.65;5.15;;;;;;;;;;4939769;29;20501;-81
2021/11/18 13:42:14;;;;;;;8.95;4.70;;;;;;;;;;4935662;29;20361;-74
2021/11/18 13:45:22;;;;;;;9.25;4.38;;;;;;;;;;4936384;29;20480;-79
2021/11/18 13:48:39;;;;;;;7.65;4.88;;;;;;;;;;4935476;29;20043;-80
2021/11/18 13:51:52;;;;;;;11.13;5.18;;;;;;;;;;4934338;29;20047;-73
2021/11/18 13:54:56;;;;;;;8.10;5.00;;;;;;;;;;4934227;29;20042;-76
2021/11/18 13:58:09;;;;;;;8.25;5.03;;;;;;;;;;4934983;29;20040;-78
2021/11/18 14:01:16;;;;;;;7.32;4.75;;;;;;;;;;4935826;29;20039;-80
2021/11/18 14:04:25;;;;;;;8.80;5.35;;;;;;;;;;4937742;29;20043;-81
2021/11/18 14:07:31;;;;;;;8.25;5.28;;;;;;;;;;4938949;29;20031;-84
2021/11/18 14:10:37;;;;;;;15.75;5.90;;;;;;;;;;4942087;29;20059;-85
2021/11/18 14:13:42;;;;;;;10.18;6.60;;;;;;;;;;4941885;29;20043;-83
2021/11/18 14:16:49;;;;;;;12.35;6.40;;;;;;;;;;4940067;29;20039;-81
2021/11/18 14:20:00;;;;;;;10.43;6.63;;;;;;;;;;4936500;29;20040;-75
2021/11/18 14:23:31;;;;;;;9.43;6.85;;;;;;;;;;4938343;29;20059;-80
2021/11/18 14:26:55;;;;;;;16.98;7.07;;;;;;;;;;4941926;29;20475;-81
2021/11/18 14:30:05;;;;;;;16.52;7.32;;;;;;;;;;4937473;29;20060;-80
2021/11/18 14:33:16;;;;;;;16.45;7.30;;;;;;;;;;4935133;29;20048;-82
2021/11/18 14:36:27;;;;;;;10.90;6.30;;;;;;;;;;4940307;29;20391;-82
2021/11/18 14:39:39;;;;;;;15.35;7.55;;;;;;;;;;4931168;29;20039;-76
2021/11/18 14:42:50;;;;;;;18.33;7.05;;;;;;;;;;4939213;29;20058;-80
2021/11/18 14:46:18;;;;;;;21.73;9.57;;;;;;;;;;4939768;29;20052;-78
2021/11/18 14:49:31;;;;;;;25.83;14.43;;;;;;;;;;4939148;29;20059;-80
2021/11/18 14:52:37;;;;;;;28.83;16.48;;;;;;;;;;4940858;29;20051;-79
2021/11/18 14:55:55;;;;;;;24.83;13.13;;;;;;;;;;4940149;29;20051;-78
2021/11/18 14:59:00;;;;;;;19.38;9.93;;;;;;;;;;4939352;29;20052;-75
2021/11/18 15:02:10;;;;;;;16.95;8.63;;;;;;;;;;4940414;29;20048;-84
2021/11/18 15:05:15;;;;;;;14.73;7.18;;;;;;;;;;4939817;29;20042;-75
2021/11/18 15:08:19;;;;;;;13.90;6.97;;;;;;;;;;4940966;29;20396;-81
2021/11/18 15:11:31;;;;;;;15.63;7.75;;;;;;;;;;4936951;29;20044;-79
2021/11/18 15:14:37;;;;;;;15.30;6.82;;;;;;;;;;4937896;29;20500;-78
2021/11/18 15:17:49;;;;;;;16.55;7.97;;;;;;;;;;4936657;29;20032;-80
2021/11/18 15:20:55;;;;;;;22.85;7.50;;;;;;;;;;4926060;29;20048;-75
2021/11/18 15:24:07;;;;;;;12.77;6.57;;;;;;;;;;4939509;29;20055;-78
2021/11/18 15:27:11;;;;;;;10.90;7.18;;;;;;;;;;4941058;29;20395;-75
2021/11/18 15:30:21;;;;;;;15.55;6.47;;;;;;;;;;4942881;29;20055;-83
2021/11/18 15:33:28;;;;;;;11.93;6.88;;;;;;;;;;4941468;29;20055;-78
2021/11/18 15:36:33;;;;;;;16.27;7.22;;;;;;;;;;4939242;29;20389;-79
2021/11/18 15:39:37;;;;;;;16.92;7.00;;;;;;;;;;4941039;29;20040;-78
2021/11/18 15:42:42;;;;;;;21.38;8.00;;;;;;;;;;4939898;29;20053;-73
2021/11/18 15:45:47;;;;;;;19.58;9.50;;;;;;;;;;4935502;29;20036;-76
2021/11/18 15:48:51;;;;;;;14.52;8.25;;;;;;;;;;4938374;29;20043;-79
2021/11/18 15:51:58;;;;;;;12.82;7.65;;;;;;;;;;4937510;29;20392;-78
2021/11/18 15:55:06;;;;;;;17.58;9.23;;;;;;;;;;4938472;29;20433;-77
2021/11/18 15:58:10;;;;;;;17.48;9.23;;;;;;;;;;4936534;29;20036;-79
2021/11/18 16:01:17;;;;;;;16.33;9.70;;;;;;;;;;4936992;29;20511;-79
2021/11/18 16:04:23;;;;;;;17.35;10.43;;;;;;;;;;4938171;29;20050;-76
2021/11/18 16:07:27;;;;;;;15.48;9.02;;;;;;;;;;4926678;29;20062;-76
2021/11/18 16:10:37;;;;;;;15.98;9.07;;;;;;;;;;4937032;29;20517;-77
2021/11/18 16:13:43;;;;;;;21.90;11.13;;;;;;;;;;4940166;29;20513;-77
2021/11/18 16:16:48;;;;;;;20.33;10.02;;;;;;;;;;4937722;29;20050;-74
2021/11/18 16:19:53;;;;;;;23.27;10.20;;;;;;;;;;4936941;29;20491;-80
2021/11/18 16:22:57;;;;;;;15.27;10.57;;;;;;;;;;4937491;29;20051;-82
2021/11/18 16:26:02;;;;;;;22.75;11.88;;;;;;;;;;4941228;29;20055;-83
2021/11/18 16:29:14;;;;;;;17.48;9.15;;;;;;;;;;4943892;29;20074;-82
2021/11/18 16:32:19;;;;;;;22.02;11.57;;;;;;;;;;4936346;29;20035;-73
2021/11/18 16:35:24;;;;;;;22.17;10.95;;;;;;;;;;4938274;29;20054;-78
2021/11/18 16:38:32;;;;;;;11.88;7.13;;;;;;;;;;4939039;29;20494;-76
2021/11/18 16:41:39;;;;;;;13.95;7.85;;;;;;;;;;4935018;29;20051;-75
2021/11/18 16:44:43;;;;;;;9.43;5.85;;;;;;;;;;4934465;29;20050;-73
2021/11/18 16:47:48;;;;;;;10.13;5.68;;;;;;;;;;4935750;29;20051;-72
2021/11/18 16:51:12;;;;;;;7.68;4.78;;;;;;;;;;4935828;29;20051;-75
2021/11/18 16:54:17;;;;;;;6.93;4.63;;;;;;;;;;4936068;29;20043;-72
2021/11/18 16:57:22;;;;;;;5.88;3.53;;;;;;;;;;4933205;29;20405;-73
2021/11/18 17:00:28;;;;;;;7.47;3.47;;;;;;;;;;4933968;29;20035;-75
2021/11/18 17:03:33;;;;;;;5.53;3.67;;;;;;;;;;4934624;29;20043;-76
2021/11/18 17:06:38;;;;;;;7.10;3.35;;;;;;;;;;4934247;29;20035;-78
2021/11/18 17:09:43;;;;;;;7.38;4.32;;;;;;;;;;4934469;29;20051;-71
2021/11/18 17:12:52;;;;;;;8.85;3.78;;;;;;;;;;4940501;29;20040;-79
2021/11/18 17:15:57;;;;;;;7.70;4.53;;;;;;;;;;4924865;29;20063;-75
2021/11/18 17:19:02;;;;;;;6.15;3.30;;;;;;;;;;4935655;29;20047;-76
2021/11/18 17:22:09;;;;;;;9.77;3.42;;;;;;;;;;4933613;29;20040;-74
2021/11/18 17:25:15;;;;;;;3.75;2.50;;;;;;;;;;4935174;29;20047;-78
2021/11/18 17:28:19;;;;;;;5.10;2.20;;;;;;;;;;4933839;29;20381;-78
2021/11/18 17:31:27;;;;;;;4.00;1.52;;;;;;;;;;4933590;29;20044;-72
2021/11/18 17:34:32;;;;;;;5.25;2.28;;;;;;;;;;4932777;29;20043;-75
2021/11/18 17:37:37;;;;;;;5.70;2.40;;;;;;;;;;4932748;29;20044;-76
2021/11/18 17:40:41;;;;;;;3.03;2.30;;;;;;;;;;4933462;29;20035;-73
2021/11/18 17:43:46;;;;;;;2.70;1.58;;;;;;;;;;4933264;29;20039;-72
2021/11/18 17:46:53;;;;;;;2.00;1.55;;;;;;;;;;4933951;29;20633;-76
2021/11/18 17:49:58;;;;;;;2.45;1.77;;;;;;;;;;4922231;29;20051;-74
2021/11/18 17:53:03;;;;;;;3.50;2.08;;;;;;;;;;4937597;29;20036;-76
2021/11/18 17:56:08;;;;;;;3.70;2.13;;;;;;;;;;4936840;29;20039;-79
2021/11/18 17:59:14;;;;;;;2.58;1.60;;;;;;;;;;4936365;29;20039;-77
2021/11/18 18:02:26;;;;;;;2.67;1.88;;;;;;;;;;4936028;29;20043;-80
2021/11/18 18:05:30;;;;;;;4.15;2.05;;;;;;;;;;4933411;29;20036;-74
2021/11/18 18:08:36;;;;;;;3.58;2.20;;;;;;;;;;4935344;29;20051;-76
2021/11/18 18:11:41;;;;;;;3.33;2.47;;;;;;;;;;4937014;29;20048;-73
2021/11/18 18:14:46;;;;;;;4.15;2.63;;;;;;;;;;4937882;29;20039;-79
2021/11/18 18:17:50;;;;;;;6.78;3.15;;;;;;;;;;4938332;29;20043;-74
2021/11/18 18:20:55;;;;;;;4.68;3.38;;;;;;;;;;4938013;29;20036;-76
2021/11/18 18:23:59;;;;;;;4.63;3.67;;;;;;;;;;4936703;29;20047;-72
2021/11/18 18:27:24;;;;;;;7.93;4.47;;;;;;;;;;4936973;29;20040;-72
2021/11/18 18:30:50;;;;;;;8.13;3.60;;;;;;;;;;4937098;29;20051;-73
2021/11/18 18:33:54;;;;;;;8.48;6.00;;;;;;;;;;4936539;29;20051;-72
2021/11/18 18:37:00;;;;;;;16.83;11.57;;;;;;;;;;4936889;29;20388;-73
2021/11/18 18:40:08;;;;;;;16.52;10.65;;;;;;;;;;4937205;29;20039;-74
2021/11/18 18:43:16;;;;;;;6.28;5.10;;;;;;;;;;4936975;29;20054;-73